sensor_id;sensor_type;location;lat;lon;timestamp;pressure;altitude;pressure_sealevel;temperature;humidity
33161;BME280;19522;45.656;11.302;2023-02-14T00:01:46;100190.84;;;2.87;78.32
33161;BME280;19522;45.656;11.302;2023-02-14T00:04:12;100206.59;;;2.93;78.60
33161;BME280;19522;45.656;11.302;2023-02-14T00:06:39;100203.31;;;2.88;78.82
33161;BME280;19522;45.656;11.302;2023-02-14T00:09:16;100202.53;;;2.86;78.85
33161;BME280;19522;45.656;11.302;2023-02-14T00:11:42;100195.44;;;2.70;79.58
33161;BME280;19522;45.656;11.302;2023-02-14T00:14:08;100197.94;;;2.73;79.83
33161;BME280;19522;45.656;11.302;2023-02-14T00:16:52;100194.00;;;2.64;79.97
33161;BME280;19522;45.656;11.302;2023-02-14T00:19:20;100192.66;;;2.57;80.16
33161;BME280;19522;45.656;11.302;2023-02-14T00:21:46;100190.25;;;2.67;80.03
33161;BME280;19522;45.656;11.302;2023-02-14T00:24:14;100182.59;;;2.75;79.73
33161;BME280;19522;45.656;11.302;2023-02-14T00:26:41;100174.94;;;2.84;78.65
33161;BME280;19522;45.656;11.302;2023-02-14T00:29:11;100180.88;;;2.74;79.06
33161;BME280;19522;45.656;11.302;2023-02-14T00:31:37;100170.34;;;2.71;79.26
33161;BME280;19522;45.656;11.302;2023-02-14T00:34:04;100172.06;;;2.72;79.15
33161;BME280;19522;45.656;11.302;2023-02-14T00:36:30;100168.59;;;2.56;79.77
33161;BME280;19522;45.656;11.302;2023-02-14T00:38:55;100170.22;;;2.44;80.28
33161;BME280;19522;45.656;11.302;2023-02-14T00:41:21;100161.13;;;2.46;80.14
33161;BME280;19522;45.656;11.302;2023-02-14T00:43:48;100161.22;;;2.45;79.97
33161;BME280;19522;45.656;11.302;2023-02-14T00:46:15;100134.00;;;2.51;78.90
33161;BME280;19522;45.656;11.302;2023-02-14T00:48:41;100150.59;;;2.72;78.41
33161;BME280;19522;45.656;11.302;2023-02-14T00:51:07;100147.25;;;2.83;78.22
33161;BME280;19522;45.656;11.302;2023-02-14T00:53:33;100131.81;;;2.87;77.43
33161;BME280;19522;45.656;11.302;2023-02-14T00:55:59;100149.53;;;3.04;77.20
33161;BME280;19522;45.656;11.302;2023-02-14T00:58:25;100144.94;;;2.91;77.70
33161;BME280;19522;45.656;11.302;2023-02-14T01:00:51;100144.66;;;2.82;78.16
33161;BME280;19522;45.656;11.302;2023-02-14T01:03:16;100148.88;;;2.71;78.76
33161;BME280;19522;45.656;11.302;2023-02-14T01:05:42;100122.06;;;2.42;80.18
33161;BME280;19522;45.656;11.302;2023-02-14T01:08:07;100136.25;;;2.44;81.39
33161;BME280;19522;45.656;11.302;2023-02-14T01:10:35;100137.56;;;2.52;81.58
33161;BME280;19522;45.656;11.302;2023-02-14T01:13:01;100140.75;;;2.58;80.99
33161;BME280;19522;45.656;11.302;2023-02-14T01:15:27;100135.47;;;2.57;80.76
33161;BME280;19522;45.656;11.302;2023-02-14T01:17:53;100133.94;;;2.53;80.65
33161;BME280;19522;45.656;11.302;2023-02-14T01:20:18;100069.84;;;2.33;79.19
33161;BME280;19522;45.656;11.302;2023-02-14T01:22:44;100131.84;;;2.72;78.33
33161;BME280;19522;45.656;11.302;2023-02-14T01:25:10;100122.72;;;2.75;77.99
33161;BME280;19522;45.656;11.302;2023-02-14T01:27:35;100122.53;;;2.78;77.52
33161;BME280;19522;45.656;11.302;2023-02-14T01:30:01;100119.16;;;2.74;77.65
33161;BME280;19522;45.656;11.302;2023-02-14T01:32:30;100109.41;;;2.73;77.44
33161;BME280;19522;45.656;11.302;2023-02-14T01:34:55;100097.53;;;2.63;77.82
33161;BME280;19522;45.656;11.302;2023-02-14T01:37:21;100103.81;;;2.76;77.96
33161;BME280;19522;45.656;11.302;2023-02-14T01:39:46;100077.09;;;2.60;78.04
33161;BME280;19522;45.656;11.302;2023-02-14T01:42:12;100100.78;;;2.68;78.33
33161;BME280;19522;45.656;11.302;2023-02-14T01:47:05;100084.31;;;2.45;78.98
33161;BME280;19522;45.656;11.302;2023-02-14T01:49:54;100102.59;;;2.53;79.37
33161;BME280;19522;45.656;11.302;2023-02-14T01:52:24;100097.34;;;2.37;79.66
33161;BME280;19522;45.656;11.302;2023-02-14T01:54:59;100101.19;;;2.62;79.12
33161;BME280;19522;45.656;11.302;2023-02-14T01:57:30;100094.09;;;2.61;78.23
33161;BME280;19522;45.656;11.302;2023-02-14T01:59:58;100020.94;;;2.01;78.55
33161;BME280;19522;45.656;11.302;2023-02-14T02:02:45;100089.19;;;2.68;77.89
33161;BME280;19522;45.656;11.302;2023-02-14T02:05:11;100083.91;;;2.80;77.05
33161;BME280;19522;45.656;11.302;2023-02-14T02:07:37;100080.63;;;2.75;76.74
33161;BME280;19522;45.656;11.302;2023-02-14T02:10:05;100083.72;;;2.69;77.05
33161;BME280;19522;45.656;11.302;2023-02-14T02:12:32;100079.72;;;2.47;77.52
33161;BME280;19522;45.656;11.302;2023-02-14T02:15:00;100080.19;;;2.69;76.86
33161;BME280;19522;45.656;11.302;2023-02-14T02:23:44;100074.25;;;2.63;77.92
33161;BME280;19522;45.656;11.302;2023-02-14T02:37:31;100067.88;;;2.79;77.25
33161;BME280;19522;45.656;11.302;2023-02-14T02:40:21;100074.91;;;2.82;76.90
33161;BME280;19522;45.656;11.302;2023-02-14T02:43:16;100078.72;;;2.77;76.63
33161;BME280;19522;45.656;11.302;2023-02-14T02:45:51;100068.50;;;2.55;77.45
33161;BME280;19522;45.656;11.302;2023-02-14T02:48:44;100062.47;;;2.52;77.05
33161;BME280;19522;45.656;11.302;2023-02-14T02:54:51;100049.25;;;2.63;76.23
33161;BME280;19522;45.656;11.302;2023-02-14T02:57:24;100063.50;;;2.63;76.12
33161;BME280;19522;45.656;11.302;2023-02-14T02:59:54;100062.00;;;2.45;76.80
33161;BME280;19522;45.656;11.302;2023-02-14T03:02:28;100058.28;;;2.33;76.67
33161;BME280;19522;45.656;11.302;2023-02-14T03:04:57;100056.44;;;2.48;76.65
33161;BME280;19522;45.656;11.302;2023-02-14T03:10:14;100062.75;;;2.61;76.00
33161;BME280;19522;45.656;11.302;2023-02-14T03:12:50;100068.50;;;2.55;76.21
33161;BME280;19522;45.656;11.302;2023-02-14T03:15:21;100072.75;;;2.30;77.43
33161;BME280;19522;45.656;11.302;2023-02-14T03:23:26;100079.03;;;2.44;77.25
33161;BME280;19522;45.656;11.302;2023-02-14T03:29:00;100071.97;;;2.28;77.50
33161;BME280;19522;45.656;11.302;2023-02-14T03:37:11;100079.78;;;2.75;75.73
33161;BME280;19522;45.656;11.302;2023-02-14T03:39:42;100084.69;;;2.83;74.86
33161;BME280;19522;45.656;11.302;2023-02-14T03:42:19;100060.56;;;2.39;75.60
33161;BME280;19522;45.656;11.302;2023-02-14T03:44:47;100074.63;;;2.43;75.99
33161;BME280;19522;45.656;11.302;2023-02-14T03:47:18;100091.13;;;2.37;76.70
33161;BME280;19522;45.656;11.302;2023-02-14T03:49:58;100095.53;;;2.67;75.28
33161;BME280;19522;45.656;11.302;2023-02-14T03:52:27;100097.13;;;2.69;74.65
33161;BME280;19522;45.656;11.302;2023-02-14T03:54:56;100095.22;;;2.57;75.31
33161;BME280;19522;45.656;11.302;2023-02-14T03:57:41;100096.88;;;2.30;76.55
33161;BME280;19522;45.656;11.302;2023-02-14T04:00:12;100101.06;;;2.20;77.23
33161;BME280;19522;45.656;11.302;2023-02-14T04:02:42;100095.47;;;1.94;78.37
33161;BME280;19522;45.656;11.302;2023-02-14T04:05:14;100100.38;;;2.02;78.42
33161;BME280;19522;45.656;11.302;2023-02-14T04:07:52;100097.44;;;2.36;76.82
33161;BME280;19522;45.656;11.302;2023-02-14T04:10:19;100088.25;;;2.54;75.47
33161;BME280;19522;45.656;11.302;2023-02-14T04:12:45;100095.81;;;2.62;74.72
33161;BME280;19522;45.656;11.302;2023-02-14T04:15:11;100083.63;;;2.42;75.09
33161;BME280;19522;45.656;11.302;2023-02-14T04:17:38;100100.41;;;2.45;75.39
33161;BME280;19522;45.656;11.302;2023-02-14T04:20:22;100088.53;;;2.35;75.65
33161;BME280;19522;45.656;11.302;2023-02-14T04:22:48;100100.31;;;2.47;75.52
33161;BME280;19522;45.656;11.302;2023-02-14T04:25:16;100107.09;;;2.38;76.20
33161;BME280;19522;45.656;11.302;2023-02-14T04:27:42;100093.50;;;2.12;76.98
33161;BME280;19522;45.656;11.302;2023-02-14T04:30:08;100104.38;;;1.95;78.30
33161;BME280;19522;45.656;11.302;2023-02-14T04:32:34;100106.00;;;1.97;78.99
33161;BME280;19522;45.656;11.302;2023-02-14T04:34:59;100107.91;;;1.95;78.93
33161;BME280;19522;45.656;11.302;2023-02-14T04:37:25;100112.19;;;2.28;77.49
33161;BME280;19522;45.656;11.302;2023-02-14T04:39:50;100106.25;;;2.38;76.38
33161;BME280;19522;45.656;11.302;2023-02-14T04:42:16;100108.28;;;2.34;76.49
33161;BME280;19522;45.656;11.302;2023-02-14T04:44:42;100110.91;;;2.05;77.28
33161;BME280;19522;45.656;11.302;2023-02-14T04:47:08;100093.06;;;1.90;77.98
33161;BME280;19522;45.656;11.302;2023-02-14T04:49:34;100107.06;;;1.95;78.14
33161;BME280;19522;45.656;11.302;2023-02-14T04:52:00;100097.34;;;2.23;76.46
33161;BME280;19522;45.656;11.302;2023-02-14T04:54:26;100095.72;;;2.34;75.68
33161;BME280;19522;45.656;11.302;2023-02-14T04:56:52;100100.03;;;2.23;75.68
33161;BME280;19522;45.656;11.302;2023-02-14T04:59:17;100086.13;;;2.01;76.55
33161;BME280;19522;45.656;11.302;2023-02-14T05:01:42;100087.75;;;2.04;77.30
33161;BME280;19522;45.656;11.302;2023-02-14T05:04:08;100056.16;;;1.95;77.04
33161;BME280;19522;45.656;11.302;2023-02-14T05:06:34;100063.56;;;2.20;75.61
33161;BME280;19522;45.656;11.302;2023-02-14T05:08:59;100076.09;;;2.34;75.45
33161;BME280;19522;45.656;11.302;2023-02-14T05:11:26;100071.09;;;2.28;75.68
33161;BME280;19522;45.656;11.302;2023-02-14T05:13:52;100078.09;;;2.16;76.55
33161;BME280;19522;45.656;11.302;2023-02-14T05:16:17;100012.31;;;1.81;76.11
33161;BME280;19522;45.656;11.302;2023-02-14T05:18:43;100084.47;;;1.99;76.79
33161;BME280;19522;45.656;11.302;2023-02-14T05:21:08;100078.16;;;1.85;77.85
33161;BME280;19522;45.656;11.302;2023-02-14T05:23:35;100069.56;;;1.64;78.84
33161;BME280;19522;45.656;11.302;2023-02-14T05:26:00;100061.97;;;1.87;77.78
33161;BME280;19522;45.656;11.302;2023-02-14T05:28:26;100049.03;;;1.79;77.69
33161;BME280;19522;45.656;11.302;2023-02-14T05:30:51;99999.47;;;1.58;77.48
33161;BME280;19522;45.656;11.302;2023-02-14T05:33:17;100065.44;;;1.89;77.69
33161;BME280;19522;45.656;11.302;2023-02-14T05:35:43;100064.38;;;1.92;77.81
33161;BME280;19522;45.656;11.302;2023-02-14T05:38:08;100063.03;;;1.84;77.56
33161;BME280;19522;45.656;11.302;2023-02-14T05:40:34;100067.22;;;1.74;78.36
33161;BME280;19522;45.656;11.302;2023-02-14T05:42:59;100053.25;;;1.98;77.13
33161;BME280;19522;45.656;11.302;2023-02-14T05:45:25;100043.81;;;1.92;77.64
33161;BME280;19522;45.656;11.302;2023-02-14T05:47:50;100070.72;;;2.05;78.17
33161;BME280;19522;45.656;11.302;2023-02-14T05:50:17;100070.13;;;1.85;78.59
33161;BME280;19522;45.656;11.302;2023-02-14T05:52:42;100036.63;;;1.48;79.26
33161;BME280;19522;45.656;11.302;2023-02-14T05:55:09;100071.22;;;1.67;79.46
33161;BME280;19522;45.656;11.302;2023-02-14T05:57:35;100060.69;;;1.78;79.48
33161;BME280;19522;45.656;11.302;2023-02-14T06:00:01;100057.97;;;1.94;78.53
33161;BME280;19522;45.656;11.302;2023-02-14T06:02:26;100013.91;;;1.69;77.99
33161;BME280;19522;45.656;11.302;2023-02-14T06:04:52;100043.28;;;1.71;78.39
33161;BME280;19522;45.656;11.302;2023-02-14T06:07:17;100051.81;;;1.78;78.71
33161;BME280;19522;45.656;11.302;2023-02-14T06:09:43;100051.28;;;1.57;79.42
33161;BME280;19522;45.656;11.302;2023-02-14T06:12:08;100060.44;;;1.52;80.20
33161;BME280;19522;45.656;11.302;2023-02-14T06:14:34;100068.22;;;1.88;78.78
33161;BME280;19522;45.656;11.302;2023-02-14T06:16:59;100060.84;;;1.91;78.46
33161;BME280;19522;45.656;11.302;2023-02-14T06:19:24;100059.41;;;2.00;77.89
33161;BME280;19522;45.656;11.302;2023-02-14T06:21:50;100052.03;;;2.03;77.56
33161;BME280;19522;45.656;11.302;2023-02-14T06:24:16;100062.19;;;2.13;77.58
33161;BME280;19522;45.656;11.302;2023-02-14T06:26:41;100074.25;;;2.06;77.77
33161;BME280;19522;45.656;11.302;2023-02-14T06:29:07;100075.06;;;1.77;79.47
33161;BME280;19522;45.656;11.302;2023-02-14T06:31:32;100057.06;;;1.65;80.05
33161;BME280;19522;45.656;11.302;2023-02-14T06:33:58;100081.84;;;1.83;79.95
33161;BME280;19522;45.656;11.302;2023-02-14T06:36:23;100080.63;;;1.89;79.69
33161;BME280;19522;45.656;11.302;2023-02-14T06:38:49;100085.13;;;2.02;79.34
33161;BME280;19522;45.656;11.302;2023-02-14T06:41:15;100078.38;;;1.97;79.33
33161;BME280;19522;45.656;11.302;2023-02-14T06:43:42;100083.03;;;1.93;79.92
33161;BME280;19522;45.656;11.302;2023-02-14T06:46:08;100088.66;;;1.89;80.25
33161;BME280;19522;45.656;11.302;2023-02-14T06:48:34;100080.06;;;1.83;80.16
33161;BME280;19522;45.656;11.302;2023-02-14T06:50:59;100089.00;;;2.13;78.84
33161;BME280;19522;45.656;11.302;2023-02-14T06:53:25;100036.63;;;1.93;78.33
33161;BME280;19522;45.656;11.302;2023-02-14T06:55:51;100099.44;;;2.32;78.42
33161;BME280;19522;45.656;11.302;2023-02-14T06:58:17;100064.75;;;2.00;78.28
33161;BME280;19522;45.656;11.302;2023-02-14T07:00:42;100100.09;;;2.07;78.28
33161;BME280;19522;45.656;11.302;2023-02-14T07:03:08;100103.22;;;1.99;78.65
33161;BME280;19522;45.656;11.302;2023-02-14T07:05:33;100104.59;;;2.06;78.83
33161;BME280;19522;45.656;11.302;2023-02-14T07:07:59;100094.41;;;1.82;78.95
33161;BME280;19522;45.656;11.302;2023-02-14T07:10:25;100080.97;;;2.27;77.20
33161;BME280;19522;45.656;11.302;2023-02-14T07:12:51;100091.78;;;2.11;77.72
33161;BME280;19522;45.656;11.302;2023-02-14T07:15:17;100106.06;;;2.26;77.33
33161;BME280;19522;45.656;11.302;2023-02-14T07:17:43;100094.94;;;2.47;76.16
33161;BME280;19522;45.656;11.302;2023-02-14T07:20:10;100089.56;;;2.61;75.56
33161;BME280;19522;45.656;11.302;2023-02-14T07:22:37;100081.84;;;2.42;75.91
33161;BME280;19522;45.656;11.302;2023-02-14T07:25:04;100092.25;;;2.61;75.13
33161;BME280;19522;45.656;11.302;2023-02-14T07:27:31;100093.91;;;2.64;75.14
33161;BME280;19522;45.656;11.302;2023-02-14T07:29:56;100096.47;;;2.65;75.38
33161;BME280;19522;45.656;11.302;2023-02-14T07:32:22;100095.44;;;2.54;75.94
33161;BME280;19522;45.656;11.302;2023-02-14T07:34:48;100103.47;;;2.39;76.64
33161;BME280;19522;45.656;11.302;2023-02-14T07:37:13;100093.50;;;2.27;77.26
33161;BME280;19522;45.656;11.302;2023-02-14T07:39:41;100100.31;;;2.32;77.82
33161;BME280;19522;45.656;11.302;2023-02-14T07:42:06;100101.72;;;2.67;76.26
33161;BME280;19522;45.656;11.302;2023-02-14T07:44:32;100098.28;;;2.65;76.82
33161;BME280;19522;45.656;11.302;2023-02-14T07:46:58;100104.91;;;2.45;77.51
33161;BME280;19522;45.656;11.302;2023-02-14T07:49:23;100095.03;;;2.45;78.49
33161;BME280;19522;45.656;11.302;2023-02-14T07:51:49;100095.31;;;2.70;78.67
33161;BME280;19522;45.656;11.302;2023-02-14T07:54:14;100082.06;;;2.81;78.11
33161;BME280;19522;45.656;11.302;2023-02-14T07:56:40;100079.50;;;2.79;78.54
33161;BME280;19522;45.656;11.302;2023-02-14T07:59:05;100080.91;;;2.85;78.59
33161;BME280;19522;45.656;11.302;2023-02-14T08:01:31;100058.50;;;2.86;78.18
33161;BME280;19522;45.656;11.302;2023-02-14T08:03:56;100080.19;;;3.10;78.19
33161;BME280;19522;45.656;11.302;2023-02-14T08:06:22;100060.47;;;3.24;76.92
33161;BME280;19522;45.656;11.302;2023-02-14T08:08:47;100067.88;;;3.61;75.76
33161;BME280;19522;45.656;11.302;2023-02-14T08:11:13;100077.34;;;3.67;76.16
33161;BME280;19522;45.656;11.302;2023-02-14T08:13:57;100067.78;;;3.63;76.18
33161;BME280;19522;45.656;11.302;2023-02-14T08:16:23;100063.53;;;3.86;75.27
33161;BME280;19522;45.656;11.302;2023-02-14T08:18:48;100070.63;;;4.26;73.49
33161;BME280;19522;45.656;11.302;2023-02-14T08:21:14;100084.94;;;4.39;72.64
33161;BME280;19522;45.656;11.302;2023-02-14T08:23:41;100082.38;;;4.38;72.94
33161;BME280;19522;45.656;11.302;2023-02-14T08:26:07;100077.50;;;4.43;72.97
33161;BME280;19522;45.656;11.302;2023-02-14T08:28:33;100078.69;;;4.51;72.74
33161;BME280;19522;45.656;11.302;2023-02-14T08:31:00;100077.59;;;4.67;72.42
33161;BME280;19522;45.656;11.302;2023-02-14T08:33:25;100066.78;;;4.80;71.49
33161;BME280;19522;45.656;11.302;2023-02-14T08:35:51;100063.44;;;4.89;70.48
33161;BME280;19522;45.656;11.302;2023-02-14T08:38:16;100045.97;;;5.19;68.28
33161;BME280;19522;45.656;11.302;2023-02-14T08:40:42;100054.88;;;5.33;68.07
33161;BME280;19522;45.656;11.302;2023-02-14T08:43:08;100054.88;;;5.44;67.13
33161;BME280;19522;45.656;11.302;2023-02-14T08:45:34;100065.63;;;5.57;67.95
33161;BME280;19522;45.656;11.302;2023-02-14T08:48:08;100056.22;;;5.74;67.61
33161;BME280;19522;45.656;11.302;2023-02-14T08:50:35;100029.28;;;5.74;67.02
33161;BME280;19522;45.656;11.302;2023-02-14T08:53:05;100046.03;;;6.13;65.86
33161;BME280;19522;45.656;11.302;2023-02-14T08:55:32;100042.63;;;6.34;65.69
33161;BME280;19522;45.656;11.302;2023-02-14T08:57:58;100021.78;;;6.59;64.35
33161;BME280;19522;45.656;11.302;2023-02-14T09:00:25;100015.69;;;7.00;58.72
33161;BME280;19522;45.656;11.302;2023-02-14T09:02:51;100032.94;;;7.53;57.64
33161;BME280;19522;45.656;11.302;2023-02-14T09:05:18;100027.53;;;7.95;56.28
33161;BME280;19522;45.656;11.302;2023-02-14T09:07:44;100013.47;;;8.54;53.26
33161;BME280;19522;45.656;11.302;2023-02-14T09:10:09;100026.28;;;9.02;52.51
33161;BME280;19522;45.656;11.302;2023-02-14T09:12:38;99996.63;;;9.30;51.98
33161;BME280;19522;45.656;11.302;2023-02-14T09:15:04;100020.00;;;10.00;50.82
33161;BME280;19522;45.656;11.302;2023-02-14T09:17:30;100014.00;;;10.44;48.96
33161;BME280;19522;45.656;11.302;2023-02-14T09:19:55;99984.19;;;10.62;47.82
33161;BME280;19522;45.656;11.302;2023-02-14T09:22:21;100001.47;;;10.89;47.44
33161;BME280;19522;45.656;11.302;2023-02-14T09:24:47;100005.03;;;11.53;45.98
33161;BME280;19522;45.656;11.302;2023-02-14T09:27:12;100009.28;;;12.19;44.45
33161;BME280;19522;45.656;11.302;2023-02-14T09:29:38;100002.38;;;12.75;43.02
33161;BME280;19522;45.656;11.302;2023-02-14T09:32:03;99990.56;;;12.93;42.75
33161;BME280;19522;45.656;11.302;2023-02-14T09:34:29;100000.03;;;12.81;42.67
33161;BME280;19522;45.656;11.302;2023-02-14T09:36:55;99999.75;;;12.92;42.40
33161;BME280;19522;45.656;11.302;2023-02-14T09:39:39;99998.75;;;13.09;42.35
33161;BME280;19522;45.656;11.302;2023-02-14T09:44:53;99985.34;;;13.99;39.89
33161;BME280;19522;45.656;11.302;2023-02-14T09:52:47;99967.06;;;13.33;39.65
33161;BME280;19522;45.656;11.302;2023-02-14T09:55:15;99984.16;;;13.85;39.16
33161;BME280;19522;45.656;11.302;2023-02-14T09:58:15;99976.69;;;14.91;38.56
33161;BME280;19522;45.656;11.302;2023-02-14T10:01:18;99972.81;;;15.09;37.20
33161;BME280;19522;45.656;11.302;2023-02-14T10:09:01;99974.59;;;15.48;36.99
33161;BME280;19522;45.656;11.302;2023-02-14T10:11:32;99971.44;;;15.60;37.46
33161;BME280;19522;45.656;11.302;2023-02-14T10:14:04;99978.03;;;15.88;36.76
33161;BME280;19522;45.656;11.302;2023-02-14T10:16:53;99967.19;;;15.34;35.93
33161;BME280;19522;45.656;11.302;2023-02-14T10:19:31;99933.16;;;15.51;36.10
33161;BME280;19522;45.656;11.302;2023-02-14T10:22:02;99974.47;;;15.41;35.79
33161;BME280;19522;45.656;11.302;2023-02-14T10:24:37;99971.66;;;15.50;36.43
33161;BME280;19522;45.656;11.302;2023-02-14T10:29:56;99959.13;;;15.32;36.01
33161;BME280;19522;45.656;11.302;2023-02-14T10:32:34;99961.72;;;15.34;37.67
33161;BME280;19522;45.656;11.302;2023-02-14T10:35:20;99955.47;;;15.63;35.33
33161;BME280;19522;45.656;11.302;2023-02-14T10:38:03;99951.41;;;16.57;34.36
33161;BME280;19522;45.656;11.302;2023-02-14T10:44:14;99939.97;;;16.69;33.93
33161;BME280;19522;45.656;11.302;2023-02-14T10:46:58;99924.03;;;16.79;35.16
33161;BME280;19522;45.656;11.302;2023-02-14T10:52:35;99929.22;;;16.07;35.48
33161;BME280;19522;45.656;11.302;2023-02-14T10:55:31;99925.03;;;15.81;35.20
33161;BME280;19522;45.656;11.302;2023-02-14T10:58:03;99928.84;;;15.57;36.54
33161;BME280;19522;45.656;11.302;2023-02-14T11:00:33;99914.84;;;16.35;35.61
33161;BME280;19522;45.656;11.302;2023-02-14T11:03:02;99901.69;;;16.45;34.78
33161;BME280;19522;45.656;11.302;2023-02-14T11:05:49;99902.63;;;15.39;36.34
33161;BME280;19522;45.656;11.302;2023-02-14T11:10:51;99894.41;;;15.63;36.25
33161;BME280;19522;45.656;11.302;2023-02-14T11:16:00;99877.19;;;14.92;37.83
33161;BME280;19522;45.656;11.302;2023-02-14T11:18:27;99855.88;;;15.26;37.86
33161;BME280;19522;45.656;11.302;2023-02-14T11:21:08;99864.66;;;15.21;37.87
33161;BME280;19522;45.656;11.302;2023-02-14T11:26:04;99862.84;;;15.67;36.79
33161;BME280;19522;45.656;11.302;2023-02-14T11:28:33;99844.44;;;14.84;38.13
33161;BME280;19522;45.656;11.302;2023-02-14T11:30:59;99861.25;;;14.73;38.75
33161;BME280;19522;45.656;11.302;2023-02-14T11:33:36;99835.22;;;14.77;37.56
33161;BME280;19522;45.656;11.302;2023-02-14T11:36:04;99833.56;;;14.99;38.86
33161;BME280;19522;45.656;11.302;2023-02-14T11:38:34;99845.13;;;15.01;38.73
33161;BME280;19522;45.656;11.302;2023-02-14T11:41:03;99820.78;;;15.30;36.94
33161;BME280;19522;45.656;11.302;2023-02-14T11:43:39;99830.78;;;15.91;36.26
33161;BME280;19522;45.656;11.302;2023-02-14T11:49:04;99832.28;;;15.25;37.06
33161;BME280;19522;45.656;11.302;2023-02-14T11:51:36;99828.69;;;15.63;37.15
33161;BME280;19522;45.656;11.302;2023-02-14T11:54:05;99821.00;;;15.73;37.18
33161;BME280;19522;45.656;11.302;2023-02-14T12:01:49;99795.63;;;15.79;36.91
33161;BME280;19522;45.656;11.302;2023-02-14T12:04:21;99805.34;;;15.52;37.39
33161;BME280;19522;45.656;11.302;2023-02-14T12:06:50;99806.69;;;15.56;38.24
33161;BME280;19522;45.656;11.302;2023-02-14T12:12:25;99795.31;;;15.59;37.67
33161;BME280;19522;45.656;11.302;2023-02-14T12:14:50;99794.75;;;15.64;38.08
33161;BME280;19522;45.656;11.302;2023-02-14T12:17:34;99789.59;;;15.69;38.89
33161;BME280;19522;45.656;11.302;2023-02-14T12:20:09;99792.56;;;16.56;38.11
33161;BME280;19522;45.656;11.302;2023-02-14T12:22:54;99778.63;;;17.51;35.52
33161;BME280;19522;45.656;11.302;2023-02-14T12:25:30;99781.41;;;17.29;35.77
33161;BME280;19522;45.656;11.302;2023-02-14T12:28:10;99777.72;;;17.43;36.21
33161;BME280;19522;45.656;11.302;2023-02-14T12:30:36;99766.09;;;17.76;36.08
33161;BME280;19522;45.656;11.302;2023-02-14T12:33:02;99763.72;;;17.03;36.48
33161;BME280;19522;45.656;11.302;2023-02-14T12:35:45;99764.06;;;17.50;36.43
33161;BME280;19522;45.656;11.302;2023-02-14T12:49:33;99745.09;;;18.93;33.26
33161;BME280;19522;45.656;11.302;2023-02-14T12:55:03;99739.56;;;17.20;36.54
33161;BME280;19522;45.656;11.302;2023-02-14T13:06:08;99730.53;;;18.10;35.48
33161;BME280;19522;45.656;11.302;2023-02-14T13:23:48;99731.31;;;16.70;38.26
33161;BME280;19522;45.656;11.302;2023-02-14T13:26:04;99733.91;;;17.28;37.22
33161;BME280;19522;45.656;11.302;2023-02-14T13:28:33;99737.44;;;17.22;37.67
33161;BME280;19522;45.656;11.302;2023-02-14T13:31:01;99724.03;;;17.34;37.51
33161;BME280;19522;45.656;11.302;2023-02-14T13:33:41;99727.44;;;17.08;38.16
33161;BME280;19522;45.656;11.302;2023-02-14T13:36:11;99724.03;;;16.84;38.72
33161;BME280;19522;45.656;11.302;2023-02-14T13:38:51;99720.97;;;17.22;38.71
33161;BME280;19522;45.656;11.302;2023-02-14T13:41:21;99706.47;;;16.78;38.35
33161;BME280;19522;45.656;11.302;2023-02-14T13:43:53;99721.47;;;17.68;37.21
33161;BME280;19522;45.656;11.302;2023-02-14T13:49:26;99712.50;;;17.46;37.97
33161;BME280;19522;45.656;11.302;2023-02-14T13:52:01;99701.97;;;17.21;37.92
33161;BME280;19522;45.656;11.302;2023-02-14T13:54:46;99706.19;;;17.52;37.74
33161;BME280;19522;45.656;11.302;2023-02-14T13:57:32;99710.81;;;17.51;37.45
33161;BME280;19522;45.656;11.302;2023-02-14T14:02:51;99703.16;;;17.47;37.19
33161;BME280;19522;45.656;11.302;2023-02-14T14:10:53;99698.84;;;16.74;38.69
33161;BME280;19522;45.656;11.302;2023-02-14T14:19:01;99694.97;;;16.61;38.25
33161;BME280;19522;45.656;11.302;2023-02-14T14:21:43;99696.47;;;16.42;38.74
33161;BME280;19522;45.656;11.302;2023-02-14T14:24:22;99696.81;;;15.96;40.17
33161;BME280;19522;45.656;11.302;2023-02-14T14:27:15;99691.19;;;16.19;39.86
33161;BME280;19522;45.656;11.302;2023-02-14T14:29:53;99692.03;;;16.41;39.96
33161;BME280;19522;45.656;11.302;2023-02-14T14:35:04;99686.72;;;15.96;40.14
33161;BME280;19522;45.656;11.302;2023-02-14T14:37:31;99681.50;;;16.01;40.47
33161;BME280;19522;45.656;11.302;2023-02-14T14:39:59;99681.00;;;15.61;40.42
33161;BME280;19522;45.656;11.302;2023-02-14T14:42:28;99648.56;;;15.80;40.67
33161;BME280;19522;45.656;11.302;2023-02-14T14:45:04;99656.81;;;15.65;40.48
33161;BME280;19522;45.656;11.302;2023-02-14T14:47:41;99666.09;;;15.49;41.43
33161;BME280;19522;45.656;11.302;2023-02-14T14:50:16;99674.03;;;15.58;41.24
33161;BME280;19522;45.656;11.302;2023-02-14T14:52:46;99658.22;;;15.76;40.72
33161;BME280;19522;45.656;11.302;2023-02-14T14:55:25;99664.91;;;15.73;40.66
33161;BME280;19522;45.656;11.302;2023-02-14T14:57:57;99649.59;;;15.42;40.93
33161;BME280;19522;45.656;11.302;2023-02-14T15:00:33;99658.66;;;15.27;41.85
33161;BME280;19522;45.656;11.302;2023-02-14T15:05:30;99663.56;;;14.87;42.54
33161;BME280;19522;45.656;11.302;2023-02-14T15:07:57;99662.91;;;14.62;42.94
33161;BME280;19522;45.656;11.302;2023-02-14T15:10:27;99661.34;;;14.68;43.66
33161;BME280;19522;45.656;11.302;2023-02-14T15:12:57;99659.63;;;15.05;42.69
33161;BME280;19522;45.656;11.302;2023-02-14T15:15:46;99662.50;;;14.73;42.79
33161;BME280;19522;45.656;11.302;2023-02-14T15:18:14;99654.16;;;14.90;42.60
33161;BME280;19522;45.656;11.302;2023-02-14T15:20:40;99666.97;;;14.66;43.36
33161;BME280;19522;45.656;11.302;2023-02-14T15:23:06;99672.59;;;14.73;43.14
33161;BME280;19522;45.656;11.302;2023-02-14T15:25:34;99672.88;;;14.55;43.78